Time;durP1;ratioP1;P1;durP2;ratioP2;P2;SDS_P1;SDS_P2;PMS_P1;PMS_P2;Temp;Humidity;BMP_temperature;BMP_pressure;BME280_temperature;BME280_humidity;BME280_pressure;Samples;Min_cycle;Max_cycle;Signal;HPM_P1;HPM_P2
2022/05/13 10:36:14;;;;;;;3.37;0.80;;;;;;;18.80;54.49;101469.75;26135524;22;1199092;-61
2022/05/13 10:46:25;;;;;;;3.70;0.70;;;;;;;18.84;55.15;101473.91;25663831;23;20052;-57
2022/05/13 10:57:01;;;;;;;4.13;0.90;;;;;;;18.88;55.75;101473.63;25637443;23;20128;-59
2022/05/13 11:07:19;;;;;;;2.25;0.98;;;;;;;18.87;55.46;101485.41;25652701;23;20035;-58
2022/05/13 11:17:31;;;;;;;5.05;1.00;;;;;;;18.79;55.00;101489.63;25629050;23;20013;-57
2022/05/13 11:27:36;;;;;;;4.32;1.75;;;;;;;18.74;55.44;101508.00;25637476;23;20021;-59
2022/05/13 11:37:53;;;;;;;2.72;0.90;;;;;;;18.77;56.08;101513.13;25643614;23;20017;-60
2022/05/13 11:48:23;;;;;;;3.50;0.80;;;;;;;18.80;54.21;101518.31;25668643;23;20032;-60
2022/05/13 11:58:49;;;;;;;2.33;0.65;;;;;;;18.86;54.60;101533.09;25651871;23;20098;-60
2022/05/13 12:08:59;;;;;;;3.92;1.02;;;;;;;18.94;55.00;101524.38;25667535;23;20474;-60
2022/05/13 12:19:19;;;;;;;1.42;0.73;;;;;;;18.81;54.86;101470.59;25636679;23;20020;-59
2022/05/13 12:29:56;;;;;;;1.67;0.57;;;;;;;19.12;54.83;101522.84;25666314;23;20024;-59
2022/05/13 12:40:00;;;;;;;1.45;0.45;;;;;;;19.17;54.58;101517.06;25643385;23;20351;-59
2022/05/13 12:50:12;;;;;;;2.10;0.82;;;;;;;19.18;55.40;101499.91;25674526;23;20447;-59
2022/05/13 13:00:20;;;;;;;2.05;0.70;;;;;;;19.23;54.30;101499.53;25673641;23;20343;-59
2022/05/13 13:10:22;;;;;;;3.75;1.25;;;;;;;19.25;54.15;101509.19;25668781;23;20355;-59
2022/05/13 13:20:27;;;;;;;2.33;0.60;;;;;;;19.27;53.75;101506.38;25643826;23;20083;-59
2022/05/13 13:30:30;;;;;;;1.10;0.83;;;;;;;19.26;53.10;101516.28;25656187;23;20351;-59
2022/05/13 13:40:41;;;;;;;1.00;0.70;;;;;;;19.31;52.84;101531.25;25658860;23;20718;-59
2022/05/13 13:50:51;;;;;;;1.75;0.80;;;;;;;19.27;52.56;101526.09;25658735;23;20044;-59
2022/05/13 14:00:52;;;;;;;1.48;0.70;;;;;;;19.31;52.72;101536.63;25684825;23;20030;-62
2022/05/13 14:11:01;;;;;;;2.38;0.70;;;;;;;19.30;52.59;101543.03;25684137;23;20467;-61
2022/05/13 14:21:10;;;;;;;2.28;0.70;;;;;;;19.30;52.98;101537.63;25682140;23;20025;-61
2022/05/13 14:31:18;;;;;;;2.20;0.77;;;;;;;19.31;52.84;101536.63;25681032;23;20083;-61
2022/05/13 14:41:19;;;;;;;2.22;0.70;;;;;;;19.31;52.52;101542.03;25657020;23;20108;-61
2022/05/13 14:51:27;;;;;;;1.27;0.90;;;;;;;19.31;52.53;101542.03;25657810;23;20082;-62
2022/05/13 15:01:55;;;;;;;2.13;0.70;;;;;;;19.27;52.02;101550.41;25659870;23;20017;-61
2022/05/13 15:12:02;;;;;;;2.17;0.70;;;;;;;19.28;52.27;101548.56;25686007;23;20028;-62
2022/05/13 15:22:10;;;;;;;1.73;0.70;;;;;;;19.27;52.03;101563.91;25690151;23;20016;-62
2022/05/13 15:32:14;;;;;;;2.33;0.95;;;;;;;19.26;51.59;101556.78;25662266;23;20126;-61
2022/05/13 15:42:18;;;;;;;1.50;0.57;;;;;;;19.25;51.23;101549.66;25663288;23;20017;-61
2022/05/13 16:02:39;;;;;;;1.48;0.60;;;;;;;19.22;51.49;101543.66;25688932;23;20012;-61
2022/05/13 16:13:07;;;;;;;1.75;0.65;;;;;;;19.21;51.45;101553.63;25661215;23;20037;-62
2022/05/13 16:23:10;;;;;;;1.00;0.60;;;;;;;19.20;51.30;101559.13;25687320;23;20028;-61
2022/05/13 16:33:11;;;;;;;0.90;0.52;;;;;;;19.19;51.06;101555.59;25687765;23;20083;-59
2022/05/13 16:43:13;;;;;;;1.30;0.88;;;;;;;19.17;51.19;101562.09;25660320;23;20016;-59
2022/05/13 16:53:15;;;;;;;1.65;0.70;;;;;;;19.15;51.50;101562.25;25687273;23;20020;-60
2022/05/13 17:03:16;;;;;;;1.42;0.70;;;;;;;19.12;51.90;101563.34;25686501;23;20039;-60
2022/05/13 17:23:38;;;;;;;1.67;0.82;;;;;;;19.10;51.64;101562.59;25685696;23;20039;-59
2022/05/13 17:33:40;;;;;;;1.80;0.93;;;;;;;19.09;51.63;101576.25;25658331;23;20017;-59
2022/05/13 17:43:41;;;;;;;1.15;0.70;;;;;;;19.03;51.41;101563.28;25657790;23;20363;-59
2022/05/13 17:53:43;;;;;;;1.50;0.80;;;;;;;19.05;51.90;101564.84;25657477;23;20075;-59
2022/05/13 18:03:44;;;;;;;1.75;1.08;;;;;;;19.04;51.60;101571.22;25684400;23;20023;-59
2022/05/13 18:13:46;;;;;;;2.08;1.20;;;;;;;19.01;51.75;101568.78;25657199;23;20021;-59
2022/05/13 18:23:54;;;;;;;1.00;0.90;;;;;;;18.93;51.97;101566.69;25683421;23;20016;-59
2022/05/13 18:33:56;;;;;;;2.33;0.90;;;;;;;18.97;51.83;101584.34;25683569;23;20029;-60
2022/05/13 18:54:17;;;;;;;3.28;1.50;;;;;;;18.92;52.40;101596.50;25681898;23;20083;-61
2022/05/13 19:04:21;;;;;;;1.33;0.90;;;;;;;18.89;52.16;101594.06;25655275;23;20013;-60
2022/05/13 19:14:23;;;;;;;2.17;1.00;;;;;;;18.87;52.10;101599.56;25681798;23;20020;-61
2022/05/13 19:24:24;;;;;;;3.92;1.27;;;;;;;18.85;52.04;101601.53;25681831;23;20024;-61
2022/05/13 19:34:27;;;;;;;2.55;1.00;;;;;;;18.80;52.30;101585.75;25682313;23;20073;-61
2022/05/13 19:44:29;;;;;;;2.13;1.17;;;;;;;18.81;52.81;101602.75;25681446;23;20018;-61
2022/05/13 19:54:30;;;;;;;2.25;1.20;;;;;;;18.79;52.85;101619.09;25688256;23;20016;-60
2022/05/13 20:04:32;;;;;;;2.40;1.30;;;;;;;18.78;52.89;101616.50;25688415;23;20332;-61
2022/05/13 20:14:33;;;;;;;2.83;1.48;;;;;;;18.76;53.03;101618.47;25688956;23;20083;-61
2022/05/13 20:24:37;;;;;;;2.05;1.30;;;;;;;18.75;52.92;101624.84;25687281;23;20020;-61
2022/05/13 20:34:38;;;;;;;3.03;1.20;;;;;;;18.73;53.43;101629.50;25687459;23;20021;-61
2022/05/13 20:44:40;;;;;;;3.17;1.25;;;;;;;18.72;53.43;101625.94;25659866;23;20024;-61
2022/05/13 20:54:41;;;;;;;1.95;0.95;;;;;;;18.69;53.71;101615.41;25686132;23;20020;-61
2022/05/13 21:04:52;;;;;;;3.33;1.27;;;;;;;18.67;54.07;101615.53;25674405;23;20027;-65
2022/05/13 21:14:54;;;;;;;2.70;1.30;;;;;;;18.70;54.54;101604.50;25678595;23;20459;-62
2022/05/13 21:24:55;;;;;;;2.53;1.30;;;;;;;18.71;54.77;101602.66;25683117;23;20031;-62
2022/05/13 21:45:18;;;;;;;3.10;1.35;;;;;;;18.51;54.93;101562.00;25681654;23;20040;-62
2022/05/13 21:55:19;;;;;;;3.47;1.50;;;;;;;18.69;55.06;101597.41;25684232;23;20043;-63
2022/05/13 22:05:21;;;;;;;3.90;1.35;;;;;;;18.68;55.15;101595.69;25630091;23;20021;-62
2022/05/13 22:15:22;;;;;;;2.97;1.27;;;;;;;18.51;55.24;101567.38;25681913;23;20020;-63
2022/05/13 22:25:24;;;;;;;2.80;1.40;;;;;;;18.66;55.05;101597.66;25683286;23;20016;-63
2022/05/13 22:35:26;;;;;;;3.83;1.60;;;;;;;18.67;55.35;101593.97;25683061;23;20027;-63
2022/05/13 22:45:27;;;;;;;2.20;1.50;;;;;;;18.66;55.33;101588.69;25683177;23;20024;-63
2022/05/13 22:55:29;;;;;;;4.13;1.50;;;;;;;18.64;55.34;101582.56;25630659;23;20078;-62
2022/05/13 23:05:31;;;;;;;2.90;1.65;;;;;;;18.55;54.70;101559.88;25655276;23;20043;-63
2022/05/13 23:15:35;;;;;;;1.98;1.25;;;;;;;18.63;54.73;101576.31;25683209;23;20020;-63
2022/05/13 23:25:36;;;;;;;3.78;1.33;;;;;;;18.53;54.77;101564.53;25687709;23;20024;-62
2022/05/13 23:35:38;;;;;;;4.78;1.45;;;;;;;18.61;54.77;101572.03;25690420;23;20390;-63
2022/05/13 23:45:40;;;;;;;3.25;1.60;;;;;;;18.35;54.75;101538.09;25662721;23;20020;-63
2022/05/13 23:56:00;;;;;;;2.05;1.13;;;;;;;18.59;54.33;101582.94;25689114;23;20016;-62
